Time;durP1;ratioP1;P1;durP2;ratioP2;P2;SDS_P1;SDS_P2;PMS_P1;PMS_P2;Temp;Humidity;BMP_temperature;BMP_pressure;BME280_temperature;BME280_humidity;BME280_pressure;Samples;Min_cycle;Max_cycle;Signal;HPM_P1;HPM_P2
2022/10/18 00:01:55;;;;;;;9.30;5.43;;;16.80;99.90;;;;;;5091419;28;20250;-74
2022/10/18 00:04:21;;;;;;;13.00;4.67;;;16.70;99.90;;;;;;5097240;28;20275;-75
2022/10/18 00:06:46;;;;;;;8.40;4.47;;;16.60;99.90;;;;;;5078035;28;21001;-75
2022/10/18 00:09:12;;;;;;;10.30;5.20;;;16.60;99.90;;;;;;5091526;28;20624;-74
2022/10/18 00:11:38;;;;;;;10.13;5.00;;;16.50;99.90;;;;;;5091256;28;20569;-74
2022/10/18 00:14:03;;;;;;;7.17;5.60;;;16.40;99.90;;;;;;5092907;28;20176;-75
2022/10/18 00:16:29;;;;;;;10.90;5.57;;;16.50;99.90;;;;;;5092876;28;20164;-75
2022/10/18 00:18:55;;;;;;;5.63;5.07;;;16.50;99.90;;;;;;5093088;28;20168;-75
2022/10/18 00:21:23;;;;;;;10.63;5.03;;;16.60;99.90;;;;;;5092798;28;20217;-74
2022/10/18 00:23:50;;;;;;;12.23;5.80;;;16.60;99.90;;;;;;5092989;28;20178;-75
2022/10/18 00:26:21;;;;;;;5.77;5.03;;;16.60;99.90;;;;;;5092462;28;20405;-75
2022/10/18 00:28:51;;;;;;;7.53;4.50;;;16.60;99.90;;;;;;5093012;28;20453;-75
2022/10/18 00:31:29;;;;;;;8.03;4.50;;;16.60;99.90;;;;;;5092805;28;20407;-75
2022/10/18 00:33:58;;;;;;;8.03;4.93;;;16.60;99.90;;;;;;5093543;28;20398;-75
2022/10/18 00:36:24;;;;;;;9.73;4.67;;;16.60;99.90;;;;;;5112760;28;20406;-75
2022/10/18 00:38:51;;;;;;;7.33;4.70;;;16.60;99.90;;;;;;5113064;28;20405;-75
2022/10/18 00:41:22;;;;;;;5.93;4.13;;;16.60;99.90;;;;;;5112714;28;20955;-75
2022/10/18 00:44:01;;;;;;;5.47;4.40;;;16.60;99.90;;;;;;5113433;28;20457;-75
2022/10/18 00:46:30;;;;;;;5.30;4.50;;;16.70;99.90;;;;;;5113136;28;20398;-75
2022/10/18 00:48:59;;;;;;;12.07;4.83;;;16.80;99.90;;;;;;5116783;28;20569;-75
2022/10/18 00:51:43;;;;;;;5.90;4.80;;;16.70;99.90;;;;;;5116685;28;20426;-76
2022/10/18 00:54:09;;;;;;;7.50;4.90;;;16.70;99.90;;;;;;5116953;28;20383;-75
2022/10/18 00:56:35;;;;;;;7.03;5.43;;;16.80;99.90;;;;;;5116286;28;20927;-75
2022/10/18 00:59:01;;;;;;;5.00;4.50;;;17.00;99.90;;;;;;5116764;28;20410;-75
2022/10/18 01:01:27;;;;;;;8.93;4.90;;;17.00;99.90;;;;;;5116918;28;20588;-75
2022/10/18 01:03:53;;;;;;;6.60;5.20;;;17.00;99.90;;;;;;5117248;28;20414;-75
2022/10/18 01:06:19;;;;;;;6.03;4.70;;;16.90;99.90;;;;;;5115681;28;20399;-75
2022/10/18 01:09:08;;;;;;;5.73;5.23;;;17.00;99.90;;;;;;5116285;28;20431;-75
2022/10/18 01:12:03;;;;;;;7.43;5.40;;;17.00;99.90;;;;;;5116076;28;20202;-75
2022/10/18 01:14:44;;;;;;;5.00;4.50;;;17.20;99.90;;;;;;5116149;28;20387;-75
2022/10/18 01:17:33;;;;;;;5.73;5.23;;;17.20;99.90;;;;;;5116233;28;20383;-75
2022/10/18 01:20:21;;;;;;;6.73;4.67;;;17.20;99.90;;;;;;5115968;28;20473;-76
2022/10/18 01:22:49;;;;;;;6.83;4.97;;;17.30;99.90;;;;;;5106956;28;20458;-75
2022/10/18 01:25:20;;;;;;;8.20;4.73;;;17.30;99.90;;;;;;5115803;28;20406;-75
2022/10/18 01:27:54;;;;;;;5.10;4.60;;;17.20;99.90;;;;;;5116050;28;20426;-75
2022/10/18 01:30:28;;;;;;;6.23;4.93;;;17.20;99.90;;;;;;5116329;28;20394;-75
2022/10/18 01:32:59;;;;;;;6.30;4.57;;;17.20;99.90;;;;;;5115503;28;20775;-75
2022/10/18 01:35:36;;;;;;;7.03;5.67;;;17.10;99.90;;;;;;5113839;28;20433;-74
2022/10/18 01:38:05;;;;;;;5.30;4.80;;;17.20;99.90;;;;;;5115412;28;20448;-75
2022/10/18 01:40:32;;;;;;;5.00;4.47;;;17.20;99.90;;;;;;5114067;28;21043;-75
2022/10/18 01:42:58;;;;;;;8.37;5.30;;;17.30;99.90;;;;;;5115406;28;20509;-75
2022/10/18 01:45:24;;;;;;;5.37;4.20;;;17.40;99.90;;;;;;5116298;28;20415;-75
2022/10/18 01:47:51;;;;;;;7.23;3.90;;;17.50;99.90;;;;;;5115140;28;20413;-75
2022/10/18 01:50:28;;;;;;;6.60;4.30;;;17.60;99.90;;;;;;5115538;28;20453;-75
2022/10/18 01:52:53;;;;;;;5.93;4.93;;;17.70;99.90;;;;;;5105960;28;20929;-75
2022/10/18 01:55:45;;;;;;;7.37;5.10;;;17.70;99.90;;;;;;5094859;28;20399;-73
2022/10/18 01:58:24;;;;;;;6.53;4.40;;;17.80;99.90;;;;;;5095240;28;20169;-75
2022/10/18 02:01:07;;;;;;;7.60;4.60;;;17.80;99.90;;;;;;5093585;28;20778;-75
2022/10/18 02:03:35;;;;;;;7.17;4.37;;;17.80;99.90;;;;;;5094645;28;20430;-75
2022/10/18 02:06:30;;;;;;;6.83;4.10;;;17.70;99.90;;;;;;5113056;28;20413;-76
2022/10/18 02:09:08;;;;;;;8.30;4.80;;;17.80;99.90;;;;;;5113275;28;20411;-75
2022/10/18 02:11:36;;;;;;;4.53;4.07;;;17.70;99.90;;;;;;5114780;28;20811;-75
2022/10/18 02:14:11;;;;;;;6.07;3.60;;;17.70;99.90;;;;;;5114623;28;20475;-75
2022/10/18 02:16:44;;;;;;;7.20;4.47;;;17.80;99.90;;;;;;5115256;28;20401;-75
2022/10/18 02:19:31;;;;;;;7.73;3.87;;;17.80;99.90;;;;;;5115274;28;20390;-76
2022/10/18 02:21:58;;;;;;;6.17;4.17;;;17.90;99.90;;;;;;5114627;28;20476;-75
2022/10/18 02:24:32;;;;;;;3.93;3.50;;;17.90;99.90;;;;;;5114570;28;20490;-76
2022/10/18 02:26:57;;;;;;;5.53;4.30;;;18.00;99.90;;;;;;5114407;28;20391;-75
2022/10/18 02:29:24;;;;;;;4.37;3.80;;;18.00;99.90;;;;;;5114774;28;20460;-75
2022/10/18 02:31:57;;;;;;;5.00;4.50;;;17.90;99.90;;;;;;5113150;28;20279;-75
2022/10/18 02:34:28;;;;;;;7.80;4.30;;;17.90;99.90;;;;;;5113281;28;20422;-75
2022/10/18 02:36:57;;;;;;;4.00;3.67;;;17.90;99.90;;;;;;5114327;28;20391;-75
2022/10/18 02:39:31;;;;;;;6.50;4.50;;;17.90;99.90;;;;;;5114323;28;20449;-75
2022/10/18 02:41:57;;;;;;;5.47;3.93;;;17.90;99.90;;;;;;5114138;28;20794;-74
2022/10/18 02:44:23;;;;;;;6.40;4.20;;;17.80;99.90;;;;;;5114578;28;20399;-75
2022/10/18 02:46:48;;;;;;;7.13;4.07;;;17.80;99.90;;;;;;5114730;28;20403;-75
2022/10/18 02:49:14;;;;;;;4.30;3.67;;;17.80;99.90;;;;;;5112923;28;20233;-75
2022/10/18 02:51:40;;;;;;;6.17;3.70;;;17.70;99.90;;;;;;5113603;28;20211;-75
2022/10/18 02:54:07;;;;;;;5.83;3.60;;;17.70;99.90;;;;;;5114236;28;20173;-75
2022/10/18 02:56:33;;;;;;;5.43;4.40;;;17.80;99.90;;;;;;5114196;28;20173;-75
2022/10/18 02:58:58;;;;;;;4.00;3.50;;;17.80;99.90;;;;;;5092232;28;20434;-75
2022/10/18 03:01:24;;;;;;;5.23;4.40;;;17.80;99.90;;;;;;5076122;28;20452;-75
2022/10/18 03:03:50;;;;;;;4.80;4.30;;;17.80;99.90;;;;;;5073497;28;20295;-75
2022/10/18 03:06:15;;;;;;;4.90;3.80;;;17.80;99.90;;;;;;5113190;28;20177;-75
2022/10/18 03:08:41;;;;;;;4.43;3.97;;;17.80;99.90;;;;;;5114032;28;20734;-75
2022/10/18 03:11:06;;;;;;;5.63;4.17;;;17.90;99.90;;;;;;5113541;28;20175;-75
2022/10/18 03:13:32;;;;;;;4.50;3.33;;;17.90;99.90;;;;;;5112506;28;20192;-75
2022/10/18 03:15:58;;;;;;;7.07;4.30;;;17.80;99.90;;;;;;5112393;28;20222;-75
2022/10/18 03:18:24;;;;;;;6.17;3.83;;;17.80;99.90;;;;;;5113798;28;20818;-74
2022/10/18 03:20:50;;;;;;;5.73;4.23;;;17.80;99.90;;;;;;5113528;28;20498;-75
2022/10/18 03:23:15;;;;;;;6.40;4.20;;;17.80;99.90;;;;;;5111719;22;20679;-73
2022/10/18 03:25:41;;;;;;;7.37;3.80;;;17.90;99.90;;;;;;5073459;28;20529;-73
2022/10/18 03:28:07;;;;;;;6.93;4.50;;;17.80;99.90;;;;;;5073512;28;20173;-73
2022/10/18 03:30:32;;;;;;;7.83;4.90;;;17.70;99.90;;;;;;5073350;28;20162;-74
2022/10/18 03:32:58;;;;;;;8.93;4.80;;;17.70;99.90;;;;;;5055539;28;20415;-73
2022/10/18 03:35:24;;;;;;;7.20;3.97;;;17.60;99.90;;;;;;5059484;28;20184;-72
2022/10/18 03:37:49;;;;;;;3.77;3.40;;;17.60;99.90;;;;;;5053558;28;20158;-73
2022/10/18 03:40:15;;;;;;;12.10;4.60;;;17.60;99.90;;;;;;5053338;28;20202;-72
2022/10/18 03:42:41;;;;;;;10.60;6.03;;;17.50;99.90;;;;;;5053016;28;20193;-73
2022/10/18 03:45:06;;;;;;;8.43;5.37;;;17.40;99.90;;;;;;5053298;28;20177;-73
2022/10/18 03:47:32;;;;;;;8.40;5.20;;;17.50;99.90;;;;;;5053011;28;20253;-74
2022/10/18 03:49:58;;;;;;;4.97;4.47;;;17.50;99.90;;;;;;5052675;28;20915;-73
2022/10/18 03:52:23;;;;;;;12.17;4.57;;;17.40;99.90;;;;;;5053106;28;20187;-74
2022/10/18 03:54:49;;;;;;;5.23;3.90;;;17.60;99.90;;;;;;5035379;28;20236;-74
2022/10/18 03:57:14;;;;;;;7.20;4.63;;;17.60;99.90;;;;;;5053075;28;20167;-75
2022/10/18 03:59:40;;;;;;;6.00;4.83;;;17.70;99.90;;;;;;5056411;28;20190;-74
2022/10/18 04:02:06;;;;;;;7.33;4.37;;;17.60;99.90;;;;;;5073439;28;20190;-72
2022/10/18 04:04:31;;;;;;;4.40;4.00;;;17.60;99.90;;;;;;5054841;28;20174;-73
2022/10/18 04:06:57;;;;;;;6.97;5.00;;;17.60;99.90;;;;;;5072534;28;20223;-74
2022/10/18 04:09:22;;;;;;;9.83;5.33;;;17.60;99.90;;;;;;5072830;28;20189;-74
2022/10/18 04:11:51;;;;;;;6.83;4.50;;;17.60;99.90;;;;;;5073083;28;20174;-73
2022/10/18 04:14:17;;;;;;;7.73;4.60;;;17.40;99.90;;;;;;5073356;28;20175;-73
2022/10/18 04:16:43;;;;;;;9.17;4.90;;;17.30;99.90;;;;;;5068374;28;20457;-73
2022/10/18 04:19:08;;;;;;;6.70;4.43;;;17.40;99.90;;;;;;5072986;28;20408;-73
2022/10/18 04:21:34;;;;;;;6.80;5.10;;;17.30;99.90;;;;;;5072432;28;20211;-73
2022/10/18 04:23:59;;;;;;;6.80;4.67;;;17.20;99.90;;;;;;5075361;28;20198;-73
2022/10/18 04:26:25;;;;;;;7.83;5.13;;;17.20;99.90;;;;;;5076525;28;20166;-73
2022/10/18 04:28:51;;;;;;;5.83;4.33;;;17.10;99.90;;;;;;5076309;28;20170;-73
2022/10/18 04:31:16;;;;;;;7.80;5.40;;;17.10;99.90;;;;;;5076423;28;20181;-72
2022/10/18 04:33:42;;;;;;;5.93;5.33;;;17.10;99.90;;;;;;5076388;28;20265;-73
2022/10/18 04:36:07;;;;;;;4.90;4.07;;;17.00;99.90;;;;;;5056680;28;20178;-73
2022/10/18 04:38:33;;;;;;;6.83;4.50;;;17.00;99.90;;;;;;5038567;28;20182;-73
2022/10/18 04:40:58;;;;;;;6.47;4.60;;;17.00;99.90;;;;;;5038483;28;20679;-73
2022/10/18 04:43:24;;;;;;;6.60;4.93;;;16.90;99.90;;;;;;5062255;28;20247;-72
2022/10/18 04:45:50;;;;;;;7.90;6.10;;;17.10;99.90;;;;;;5067026;28;20177;-74
2022/10/18 04:48:16;;;;;;;6.63;5.77;;;17.10;99.90;;;;;;5066801;28;20849;-73
2022/10/18 04:50:41;;;;;;;7.03;5.20;;;17.00;99.90;;;;;;5066388;28;20182;-73
2022/10/18 04:53:07;;;;;;;5.90;4.30;;;17.00;99.90;;;;;;5066618;28;20435;-74
2022/10/18 04:55:32;;;;;;;5.93;4.37;;;17.00;99.90;;;;;;5067013;28;20200;-74
2022/10/18 04:57:58;;;;;;;5.60;4.57;;;17.10;99.90;;;;;;5066891;28;20995;-74
2022/10/18 05:00:23;;;;;;;5.10;3.77;;;17.10;99.90;;;;;;5071093;28;20197;-72
2022/10/18 05:02:49;;;;;;;4.10;3.70;;;17.40;99.90;;;;;;5075995;28;20212;-73
2022/10/18 05:05:15;;;;;;;4.77;3.53;;;17.80;99.90;;;;;;5075397;28;20633;-73
2022/10/18 05:07:40;;;;;;;4.90;4.00;;;18.00;99.90;;;;;;5075882;28;20541;-72
2022/10/18 05:10:06;;;;;;;6.83;4.13;;;18.20;99.90;;;;;;5075989;28;20174;-73
2022/10/18 05:12:32;;;;;;;7.00;4.63;;;18.30;99.90;;;;;;5075840;28;20182;-73
2022/10/18 05:14:57;;;;;;;5.67;4.40;;;18.40;99.90;;;;;;5075761;28;20416;-73
2022/10/18 05:17:23;;;;;;;5.60;3.90;;;18.40;99.90;;;;;;5075558;28;20173;-73
2022/10/18 05:19:49;;;;;;;5.20;3.90;;;18.40;99.90;;;;;;5074917;28;20190;-73
2022/10/18 05:22:14;;;;;;;4.50;3.60;;;18.50;99.90;;;;;;5075172;28;20198;-73
2022/10/18 05:24:40;;;;;;;4.73;4.20;;;18.60;99.90;;;;;;5075269;28;20169;-73
2022/10/18 05:27:05;;;;;;;6.93;5.00;;;18.60;99.90;;;;;;5075827;28;20169;-73
2022/10/18 05:29:31;;;;;;;7.60;5.27;;;18.60;99.90;;;;;;5075234;28;20170;-74
2022/10/18 05:31:56;;;;;;;7.00;5.10;;;18.50;99.90;;;;;;5075492;28;20169;-73
2022/10/18 05:34:23;;;;;;;7.83;4.20;;;18.50;99.90;;;;;;5074181;28;20170;-72
2022/10/18 05:36:49;;;;;;;7.80;5.90;;;18.40;99.90;;;;;;5054393;28;20167;-73
2022/10/18 05:39:14;;;;;;;6.00;5.50;;;18.20;99.90;;;;;;5055053;28;20413;-72
2022/10/18 05:41:40;;;;;;;7.53;6.23;;;18.10;99.90;;;;;;5054965;28;20175;-73
2022/10/18 05:44:06;;;;;;;4.80;4.40;;;18.10;99.90;;;;;;5054696;28;20290;-73
2022/10/18 05:46:32;;;;;;;5.90;3.93;;;18.00;99.90;;;;;;5055021;28;20205;-74
2022/10/18 05:48:58;;;;;;;6.13;5.20;;;17.90;99.90;;;;;;5055027;28;20408;-74
2022/10/18 05:51:23;;;;;;;5.90;5.40;;;17.90;99.90;;;;;;5047114;28;20949;-73
2022/10/18 05:53:49;;;;;;;8.40;6.00;;;18.00;99.90;;;;;;5074738;28;20202;-74
2022/10/18 05:56:15;;;;;;;9.30;5.83;;;18.00;99.90;;;;;;5074346;28;20181;-73
2022/10/18 05:58:41;;;;;;;7.60;5.90;;;18.00;99.90;;;;;;5074540;28;20162;-73
2022/10/18 06:01:09;;;;;;;6.70;5.00;;;18.00;99.90;;;;;;5074436;28;20185;-73
2022/10/18 06:03:34;;;;;;;6.83;4.47;;;18.00;99.90;;;;;;5074308;28;20420;-73
2022/10/18 06:06:05;;;;;;;5.67;4.00;;;18.00;99.90;;;;;;5074001;28;20420;-73
2022/10/18 06:08:31;;;;;;;7.20;4.20;;;18.00;99.90;;;;;;5074348;28;20232;-73
2022/10/18 06:10:57;;;;;;;5.30;3.90;;;18.00;99.90;;;;;;5074351;28;20450;-73
2022/10/18 06:13:23;;;;;;;8.37;4.43;;;17.90;99.90;;;;;;5056269;28;20185;-72
2022/10/18 06:15:49;;;;;;;8.23;4.90;;;17.90;99.90;;;;;;5074562;28;20163;-73
2022/10/18 06:18:15;;;;;;;5.37;4.10;;;18.00;99.90;;;;;;5074058;28;20166;-72
2022/10/18 06:20:40;;;;;;;5.10;3.93;;;18.10;99.90;;;;;;5073676;28;20538;-72
2022/10/18 06:23:06;;;;;;;9.40;5.00;;;18.10;99.90;;;;;;5074041;28;20460;-72
2022/10/18 06:25:31;;;;;;;7.50;4.70;;;18.20;99.90;;;;;;5073978;28;20169;-73
2022/10/18 06:27:57;;;;;;;7.40;4.03;;;18.20;99.90;;;;;;5073884;28;20160;-73
2022/10/18 06:30:22;;;;;;;6.90;4.00;;;18.30;99.90;;;;;;5073913;28;20166;-74
2022/10/18 06:32:48;;;;;;;5.53;4.20;;;18.30;99.90;;;;;;5073809;28;20189;-72
2022/10/18 06:35:13;;;;;;;5.10;3.90;;;18.50;99.90;;;;;;5063603;28;20611;-73
2022/10/18 06:37:39;;;;;;;5.30;4.13;;;18.70;99.90;;;;;;5053728;28;20185;-72
2022/10/18 06:40:05;;;;;;;8.10;4.67;;;18.90;99.90;;;;;;5053663;28;20197;-72
2022/10/18 06:42:31;;;;;;;4.80;3.77;;;19.00;99.90;;;;;;5053638;28;20609;-73
2022/10/18 06:44:57;;;;;;;4.60;3.53;;;19.00;99.90;;;;;;5053608;28;20401;-73
2022/10/18 06:47:23;;;;;;;5.93;3.00;;;19.20;99.90;;;;;;5035586;28;20640;-74
2022/10/18 06:49:48;;;;;;;5.27;4.00;;;19.30;99.90;;;;;;5035443;28;20661;-73
2022/10/18 06:52:21;;;;;;;5.03;4.23;;;19.30;99.90;;;;;;5053501;28;20428;-74
2022/10/18 06:54:46;;;;;;;4.27;3.27;;;19.30;99.90;;;;;;5053481;28;20170;-74
2022/10/18 06:57:12;;;;;;;5.20;3.63;;;19.40;99.90;;;;;;5053506;28;20401;-73
2022/10/18 06:59:37;;;;;;;6.33;3.87;;;19.50;99.90;;;;;;5053396;28;20221;-74
2022/10/18 07:02:03;;;;;;;4.70;3.33;;;19.60;99.90;;;;;;5053646;28;20245;-73
2022/10/18 07:04:32;;;;;;;4.03;3.43;;;19.70;99.90;;;;;;5052865;28;20290;-72
2022/10/18 07:06:57;;;;;;;5.10;3.57;;;19.70;99.90;;;;;;5053457;28;20170;-73
2022/10/18 07:09:23;;;;;;;9.00;3.70;;;19.80;99.90;;;;;;5053441;28;20415;-73
2022/10/18 07:11:48;;;;;;;3.77;3.47;;;19.80;99.90;;;;;;5052998;28;20198;-73
2022/10/18 07:14:14;;;;;;;5.27;3.43;;;19.90;99.90;;;;;;5053374;28;20166;-73
2022/10/18 07:16:39;;;;;;;4.57;3.63;;;19.90;99.90;;;;;;5053273;28;20171;-72
2022/10/18 07:19:05;;;;;;;3.50;3.20;;;19.90;99.90;;;;;;5053382;28;20681;-73
2022/10/18 07:21:30;;;;;;;5.77;4.17;;;19.90;99.90;;;;;;5052536;28;20564;-74
2022/10/18 07:23:56;;;;;;;8.37;4.53;;;19.90;99.90;;;;;;5052906;28;20676;-73
2022/10/18 07:26:23;;;;;;;5.33;3.50;;;19.70;99.90;;;;;;5053200;28;20158;-72
2022/10/18 07:28:54;;;;;;;4.93;2.93;;;19.70;99.90;;;;;;5053146;28;20193;-73
2022/10/18 07:31:20;;;;;;;7.50;3.97;;;19.70;99.90;;;;;;5053334;28;20401;-73
2022/10/18 07:33:46;;;;;;;5.37;3.17;;;19.90;99.90;;;;;;5035110;28;20566;-74
2022/10/18 07:36:12;;;;;;;5.40;4.10;;;20.00;99.90;;;;;;5068858;28;20485;-73
2022/10/18 07:38:39;;;;;;;5.43;3.67;;;20.10;99.90;;;;;;5073028;28;20420;-73
2022/10/18 07:41:06;;;;;;;5.27;3.43;;;20.10;99.90;;;;;;5072966;28;21013;-72
2022/10/18 07:43:32;;;;;;;3.77;3.47;;;20.10;99.90;;;;;;5073413;28;20922;-73
2022/10/18 07:46:00;;;;;;;4.10;3.47;;;20.10;99.90;;;;;;5073370;28;20495;-71
2022/10/18 07:48:26;;;;;;;6.03;4.00;;;20.20;99.90;;;;;;5072756;28;20454;-74
2022/10/18 07:50:52;;;;;;;9.17;4.93;;;20.30;99.90;;;;;;5072862;28;20408;-73
2022/10/18 07:53:18;;;;;;;6.50;4.07;;;20.40;99.90;;;;;;5073371;28;20805;-73
2022/10/18 07:55:43;;;;;;;4.27;3.70;;;20.70;99.90;;;;;;5074048;28;20227;-73
2022/10/18 07:58:10;;;;;;;4.27;3.57;;;20.70;99.90;;;;;;5056532;28;20629;-73
2022/10/18 08:00:35;;;;;;;4.40;3.40;;;20.70;99.90;;;;;;5076923;28;20193;-73
2022/10/18 08:03:01;;;;;;;5.37;4.07;;;20.80;99.90;;;;;;5076806;28;20423;-71
2022/10/18 08:05:28;;;;;;;5.43;3.60;;;21.00;99.90;;;;;;5076529;28;20652;-72
2022/10/18 08:07:53;;;;;;;4.50;3.70;;;21.10;99.90;;;;;;5076971;28;20544;-72
2022/10/18 08:10:20;;;;;;;4.73;3.30;;;21.00;99.90;;;;;;5077060;28;20411;-71
2022/10/18 08:12:46;;;;;;;5.97;3.90;;;21.00;99.90;;;;;;5076692;28;20212;-73
2022/10/18 08:15:12;;;;;;;4.97;3.90;;;21.20;99.90;;;;;;5077148;28;20404;-74
2022/10/18 08:17:37;;;;;;;6.10;3.50;;;20.90;99.90;;;;;;5077044;28;20590;-74
2022/10/18 08:20:04;;;;;;;3.97;3.57;;;20.80;99.90;;;;;;5076325;28;20204;-73
2022/10/18 08:22:29;;;;;;;8.53;4.53;;;21.10;99.90;;;;;;5076301;28;20194;-73
2022/10/18 08:24:55;;;;;;;4.93;2.97;;;21.10;99.90;;;;;;5074288;28;20395;-72
2022/10/18 08:27:21;;;;;;;4.37;3.73;;;21.00;99.90;;;;;;5056420;28;20171;-73
2022/10/18 08:29:46;;;;;;;5.83;3.60;;;21.10;99.90;;;;;;5056796;28;20629;-75
2022/10/18 08:32:12;;;;;;;7.10;4.17;;;21.30;99.90;;;;;;5056662;28;20273;-73
2022/10/18 08:34:38;;;;;;;4.70;4.00;;;21.20;99.90;;;;;;5057444;28;20224;-72
2022/10/18 08:37:03;;;;;;;4.20;3.53;;;21.40;99.90;;;;;;5076657;28;20209;-73
2022/10/18 08:39:29;;;;;;;4.40;3.47;;;21.20;99.90;;;;;;5076372;28;20534;-72
2022/10/18 08:42:38;;;;;;;5.90;3.30;;;21.30;99.90;;;;;;5076387;28;20620;-73
2022/10/18 08:45:05;;;;;;;4.17;3.77;;;21.00;99.90;;;;;;5075153;28;20190;-73
2022/10/18 08:47:37;;;;;;;5.60;3.60;;;21.10;99.90;;;;;;5075972;28;20477;-74
2022/10/18 08:50:06;;;;;;;5.17;3.90;;;21.10;99.90;;;;;;5075632;28;20408;-73
2022/10/18 08:53:01;;;;;;;4.90;3.90;;;21.30;99.90;;;;;;5075938;28;20424;-73
2022/10/18 08:55:51;;;;;;;7.40;3.97;;;21.40;99.90;;;;;;5076511;28;20515;-73
2022/10/18 08:58:22;;;;;;;6.33;3.93;;;21.50;99.90;;;;;;5076032;28;20917;-72
2022/10/18 09:00:56;;;;;;;5.93;3.80;;;21.40;99.90;;;;;;5075909;28;20961;-71
2022/10/18 09:03:47;;;;;;;4.97;4.00;;;21.40;99.90;;;;;;5075874;28;20415;-73
2022/10/18 09:06:24;;;;;;;5.70;4.00;;;21.20;99.90;;;;;;5075410;28;20762;-74
2022/10/18 09:09:00;;;;;;;7.77;4.00;;;21.20;99.90;;;;;;5075572;28;20415;-72
2022/10/18 09:11:50;;;;;;;3.90;3.50;;;21.20;99.90;;;;;;5075644;28;20407;-74
2022/10/18 09:14:33;;;;;;;3.73;3.20;;;21.10;99.90;;;;;;5075947;28;20388;-73
2022/10/18 09:17:29;;;;;;;3.87;3.50;;;21.20;99.90;;;;;;5075584;28;20380;-72
2022/10/18 09:20:25;;;;;;;4.33;3.50;;;21.30;99.90;;;;;;5075188;28;20502;-73
2022/10/18 09:23:01;;;;;;;3.90;3.50;;;21.40;99.90;;;;;;5086466;22;20554;-75
2022/10/18 09:25:43;;;;;;;4.97;3.43;;;21.60;99.90;;;;;;5075684;28;20373;-75
2022/10/18 09:28:38;;;;;;;5.20;3.00;;;21.50;99.90;;;;;;5075785;28;20369;-75
2022/10/18 09:31:15;;;;;;;4.70;3.50;;;21.70;99.90;;;;;;5034947;28;20404;-75
2022/10/18 09:33:40;;;;;;;3.97;3.67;;;21.80;99.90;;;;;;5075983;28;20831;-75
2022/10/18 09:36:23;;;;;;;5.30;3.83;;;21.90;99.90;;;;;;5075061;28;20415;-76
2022/10/18 09:39:20;;;;;;;6.40;3.80;;;22.30;99.90;;;;;;5075644;28;20616;-76
2022/10/18 09:42:10;;;;;;;3.77;3.03;;;22.60;99.90;;;;;;5060020;28;20417;-76
2022/10/18 09:44:40;;;;;;;9.10;4.00;;;22.90;99.90;;;;;;5058600;28;20396;-75
2022/10/18 09:47:25;;;;;;;4.93;4.23;;;22.90;99.90;;;;;;5075656;28;20407;-75
2022/10/18 09:49:56;;;;;;;7.60;3.80;;;22.50;99.90;;;;;;5075448;28;20957;-75
2022/10/18 09:52:47;;;;;;;8.50;4.07;;;22.10;99.90;;;;;;5075667;28;20866;-73
2022/10/18 09:55:27;;;;;;;7.07;3.87;;;21.70;99.90;;;;;;5057750;28;20400;-75
2022/10/18 09:57:58;;;;;;;5.33;4.47;;;21.50;99.90;;;;;;5074948;28;20403;-75
2022/10/18 10:00:47;;;;;;;5.90;3.60;;;21.40;99.90;;;;;;5075086;28;20432;-75
2022/10/18 10:03:16;;;;;;;9.57;4.27;;;21.40;99.90;;;;;;5074153;28;20459;-75
2022/10/18 10:05:44;;;;;;;6.73;3.73;;;21.40;99.90;;;;;;5074790;28;20895;-75
2022/10/18 10:08:10;;;;;;;5.13;3.30;;;21.80;99.90;;;;;;5074341;28;20411;-75
2022/10/18 10:10:45;;;;;;;9.97;4.30;;;22.20;99.90;;;;;;5074551;28;20772;-75
2022/10/18 10:13:23;;;;;;;8.20;4.10;;;22.50;99.90;;;;;;5074919;28;20458;-75
2022/10/18 10:15:56;;;;;;;7.77;4.17;;;22.60;99.90;;;;;;5075072;28;20377;-76
2022/10/18 10:18:25;;;;;;;3.93;3.53;;;22.30;99.90;;;;;;5056950;28;20412;-76
2022/10/18 10:20:53;;;;;;;5.20;3.70;;;22.30;99.90;;;;;;5056148;28;20499;-76
2022/10/18 10:23:21;;;;;;;6.50;3.70;;;22.50;99.90;;;;;;5056184;28;20486;-76
2022/10/18 10:25:53;;;;;;;4.60;3.30;;;22.80;99.90;;;;;;5056371;28;20404;-75
2022/10/18 10:28:22;;;;;;;4.40;3.87;;;22.60;99.90;;;;;;5074603;28;20404;-76
2022/10/18 10:30:48;;;;;;;8.73;4.20;;;22.50;99.90;;;;;;5056568;28;20954;-75
2022/10/18 10:33:36;;;;;;;7.03;4.20;;;22.30;99.90;;;;;;5074170;28;20459;-75
2022/10/18 10:36:05;;;;;;;4.83;4.00;;;22.20;99.90;;;;;;5073326;28;20438;-75
2022/10/18 10:38:31;;;;;;;5.97;3.60;;;22.40;99.90;;;;;;5074624;28;20430;-75
2022/10/18 10:40:58;;;;;;;6.20;3.70;;;22.60;99.90;;;;;;5074388;28;20604;-73
2022/10/18 10:43:28;;;;;;;5.83;3.80;;;22.80;99.90;;;;;;5074120;28;20451;-75
2022/10/18 10:45:53;;;;;;;4.10;3.70;;;22.80;99.90;;;;;;5073749;28;20397;-74
2022/10/18 10:48:19;;;;;;;6.70;4.47;;;22.80;99.90;;;;;;5073620;28;20404;-75
2022/10/18 10:51:06;;;;;;;5.57;3.93;;;22.70;99.90;;;;;;5074664;28;20162;-75
2022/10/18 10:53:35;;;;;;;7.13;3.83;;;23.20;99.90;;;;;;5073525;28;20432;-75
2022/10/18 10:56:01;;;;;;;5.87;3.97;;;24.20;99.90;;;;;;5074209;28;20404;-75
2022/10/18 10:58:33;;;;;;;5.20;4.20;;;26.30;99.90;;;;;;5074418;28;20407;-75
2022/10/18 11:01:23;;;;;;;5.27;4.20;;;26.90;99.90;;;;;;5073715;28;20489;-76
2022/10/18 11:03:52;;;;;;;4.27;3.83;;;27.30;99.90;;;;;;5074371;28;20420;-76
2022/10/18 11:06:36;;;;;;;4.70;3.70;;;27.20;99.90;;;;;;5074659;28;20443;-76
2022/10/18 11:09:08;;;;;;;3.57;3.10;;;26.80;99.90;;;;;;5074487;28;20392;-75
2022/10/18 11:11:45;;;;;;;3.50;3.20;;;26.90;99.90;;;;;;5074040;28;20831;-75
2022/10/18 11:14:13;;;;;;;4.37;3.97;;;26.20;99.90;;;;;;5074600;28;20781;-75
2022/10/18 11:16:55;;;;;;;5.57;3.97;;;25.30;99.90;;;;;;5075227;28;20561;-76
2022/10/18 11:19:54;;;;;;;4.13;3.47;;;25.10;99.90;;;;;;5075284;28;20392;-76
2022/10/18 11:22:23;;;;;;;9.63;4.40;;;25.30;99.90;;;;;;5042472;28;20409;-76
2022/10/18 11:24:48;;;;;;;4.80;4.20;;;25.40;99.90;;;;;;5076220;28;20381;-76
2022/10/18 11:27:27;;;;;;;5.10;4.60;;;25.00;99.90;;;;;;5076126;28;20458;-75
2022/10/18 11:30:12;;;;;;;4.97;4.47;;;25.00;99.90;;;;;;5081757;28;20210;-75
2022/10/18 11:33:00;;;;;;;6.83;4.47;;;24.90;99.90;;;;;;5091449;28;20419;-76
2022/10/18 11:35:47;;;;;;;7.13;4.50;;;24.50;99.90;;;;;;5079054;28;20415;-76
2022/10/18 11:38:53;;;;;;;5.53;3.63;;;24.90;99.90;;;;;;5061634;28;20431;-75
2022/10/18 11:41:48;;;;;;;6.70;4.30;;;24.60;99.90;;;;;;5078490;28;20483;-75
2022/10/18 11:44:40;;;;;;;5.23;4.57;;;24.60;99.90;;;;;;5065744;28;20451;-75
2022/10/18 11:47:19;;;;;;;3.93;3.30;;;24.70;99.90;;;;;;5070409;28;20418;-75
2022/10/18 11:50:15;;;;;;;7.70;4.33;;;24.30;99.90;;;;;;5090084;28;20764;-76
2022/10/18 11:52:58;;;;;;;5.80;4.17;;;24.50;99.90;;;;;;5089993;28;20420;-76
2022/10/18 11:55:58;;;;;;;4.33;3.93;;;24.50;99.90;;;;;;5090048;28;20456;-76
2022/10/18 11:58:57;;;;;;;4.83;3.40;;;26.20;99.90;;;;;;5088779;28;20409;-75
2022/10/18 12:01:34;;;;;;;3.97;3.57;;;28.60;99.80;;;;;;5026254;28;20462;-76
2022/10/18 12:04:23;;;;;;;5.73;3.70;;;29.90;97.40;;;;;;5088004;28;20415;-76
2022/10/18 12:06:53;;;;;;;7.30;3.60;;;31.70;93.60;;;;;;5085516;28;20421;-76
2022/10/18 12:09:35;;;;;;;5.43;3.67;;;31.40;92.70;;;;;;5078031;28;20404;-76
2022/10/18 12:12:17;;;;;;;5.10;3.30;;;29.50;94.80;;;;;;5073563;28;20898;-76
2022/10/18 12:14:53;;;;;;;5.80;3.27;;;28.30;96.80;;;;;;5072510;28;20771;-75
2022/10/18 12:17:41;;;;;;;4.50;3.50;;;27.10;98.40;;;;;;5073604;28;20831;-75
2022/10/18 12:20:25;;;;;;;5.50;3.90;;;27.10;99.70;;;;;;5072724;28;20838;-76
2022/10/18 12:23:16;;;;;;;3.60;3.30;;;26.30;99.90;;;;;;5071723;28;20463;-76
2022/10/18 12:25:52;;;;;;;4.30;3.60;;;26.90;99.70;;;;;;5073339;28;20395;-76
2022/10/18 12:28:47;;;;;;;5.00;2.80;;;27.40;99.10;;;;;;5076528;28;20870;-77
2022/10/18 12:31:19;;;;;;;4.00;2.70;;;27.50;98.70;;;;;;5038534;28;20436;-77
2022/10/18 12:33:50;;;;;;;4.30;2.53;;;26.20;99.80;;;;;;5073212;28;20426;-75
2022/10/18 12:36:21;;;;;;;3.33;2.00;;;25.40;99.90;;;;;;5071697;28;20529;-76
2022/10/18 12:39:03;;;;;;;3.60;2.60;;;24.50;99.90;;;;;;5072709;28;20898;-76
2022/10/18 12:41:32;;;;;;;2.70;2.50;;;24.20;99.90;;;;;;5072945;28;20451;-76
2022/10/18 12:44:17;;;;;;;3.10;2.43;;;25.60;99.90;;;;;;5073826;28;20419;-76
2022/10/18 12:46:56;;;;;;;5.10;2.70;;;26.40;99.90;;;;;;5076354;28;20806;-76
2022/10/18 12:49:33;;;;;;;7.73;2.53;;;27.30;99.80;;;;;;5077019;28;20376;-76
2022/10/18 12:52:26;;;;;;;4.30;2.60;;;28.30;98.10;;;;;;5076125;28;20521;-76
2022/10/18 12:55:13;;;;;;;5.93;2.50;;;28.30;97.50;;;;;;5075896;28;20459;-76
2022/10/18 12:58:14;;;;;;;3.63;1.70;;;27.50;98.10;;;;;;5076372;28;20455;-76
2022/10/18 13:00:43;;;;;;;4.80;2.87;;;26.90;98.70;;;;;;5063627;28;20949;-76
2022/10/18 13:03:08;;;;;;;3.30;2.10;;;26.60;99.30;;;;;;5076534;28;20500;-76
2022/10/18 13:05:46;;;;;;;6.93;3.60;;;26.80;99.20;;;;;;5075906;28;20435;-76
2022/10/18 13:08:26;;;;;;;5.63;3.20;;;27.00;99.90;;;;;;5076431;28;20166;-77